sensor_id;sensor_type;location;lat;lon;timestamp;temperature;humidity
17452;DHT22;8843;48.838;9.324;2023-08-08T00:01:18;17.00;76.90
17452;DHT22;8843;48.838;9.324;2023-08-08T00:03:45;17.00;77.00
17452;DHT22;8843;48.838;9.324;2023-08-08T00:06:12;17.00;77.00
17452;DHT22;8843;48.838;9.324;2023-08-08T00:08:41;17.00;77.00
17452;DHT22;8843;48.838;9.324;2023-08-08T00:11:08;17.00;77.90
17452;DHT22;8843;48.838;9.324;2023-08-08T00:13:34;17.00;77.00
17452;DHT22;8843;48.838;9.324;2023-08-08T00:16:01;17.00;77.10
17452;DHT22;8843;48.838;9.324;2023-08-08T00:18:29;17.00;77.00
17452;DHT22;8843;48.838;9.324;2023-08-08T00:20:55;17.00;77.10
17452;DHT22;8843;48.838;9.324;2023-08-08T00:23:22;17.00;77.00
17452;DHT22;8843;48.838;9.324;2023-08-08T00:25:51;17.00;77.00
17452;DHT22;8843;48.838;9.324;2023-08-08T00:28:18;17.00;77.10
17452;DHT22;8843;48.838;9.324;2023-08-08T00:30:45;17.00;77.80
17452;DHT22;8843;48.838;9.324;2023-08-08T00:33:11;17.00;77.10
17452;DHT22;8843;48.838;9.324;2023-08-08T00:35:38;17.00;77.10
17452;DHT22;8843;48.838;9.324;2023-08-08T00:38:05;17.00;77.90
17452;DHT22;8843;48.838;9.324;2023-08-08T00:40:32;17.00;77.20
17452;DHT22;8843;48.838;9.324;2023-08-08T00:43:00;17.00;77.10
17452;DHT22;8843;48.838;9.324;2023-08-08T00:45:27;17.00;77.20
17452;DHT22;8843;48.838;9.324;2023-08-08T00:47:54;17.00;77.20
17452;DHT22;8843;48.838;9.324;2023-08-08T00:50:22;17.00;77.30
17452;DHT22;8843;48.838;9.324;2023-08-08T00:52:49;17.00;77.20
17452;DHT22;8843;48.838;9.324;2023-08-08T00:55:16;17.00;77.20
17452;DHT22;8843;48.838;9.324;2023-08-08T00:57:43;17.00;77.20
17452;DHT22;8843;48.838;9.324;2023-08-08T01:00:12;17.00;77.30
17452;DHT22;8843;48.838;9.324;2023-08-08T01:02:39;17.00;77.30
17452;DHT22;8843;48.838;9.324;2023-08-08T01:05:06;17.00;77.30
17452;DHT22;8843;48.838;9.324;2023-08-08T01:07:41;17.00;77.30
17452;DHT22;8843;48.838;9.324;2023-08-08T01:10:10;16.90;77.20
17452;DHT22;8843;48.838;9.324;2023-08-08T01:12:42;16.90;77.20
17452;DHT22;8843;48.838;9.324;2023-08-08T01:15:13;17.00;77.40
17452;DHT22;8843;48.838;9.324;2023-08-08T01:17:41;17.00;77.30
17452;DHT22;8843;48.838;9.324;2023-08-08T01:20:10;17.00;77.40
17452;DHT22;8843;48.838;9.324;2023-08-08T01:22:45;16.90;77.30
17452;DHT22;8843;48.838;9.324;2023-08-08T01:25:17;17.00;77.40
17452;DHT22;8843;48.838;9.324;2023-08-08T01:27:45;17.00;77.50
17452;DHT22;8843;48.838;9.324;2023-08-08T01:30:12;16.90;77.40
17452;DHT22;8843;48.838;9.324;2023-08-08T01:32:39;16.90;77.40
17452;DHT22;8843;48.838;9.324;2023-08-08T01:35:07;16.90;77.40
17452;DHT22;8843;48.838;9.324;2023-08-08T01:37:41;16.90;77.40
17452;DHT22;8843;48.838;9.324;2023-08-08T01:40:13;16.90;77.40
17452;DHT22;8843;48.838;9.324;2023-08-08T01:42:46;16.90;77.50
17452;DHT22;8843;48.838;9.324;2023-08-08T01:45:14;16.90;77.50
17452;DHT22;8843;48.838;9.324;2023-08-08T01:47:41;16.90;77.40
17452;DHT22;8843;48.838;9.324;2023-08-08T01:50:09;16.90;78.20
17452;DHT22;8843;48.838;9.324;2023-08-08T01:52:36;16.90;77.50
17452;DHT22;8843;48.838;9.324;2023-08-08T01:55:04;16.90;77.50
17452;DHT22;8843;48.838;9.324;2023-08-08T01:57:30;16.90;77.60
17452;DHT22;8843;48.838;9.324;2023-08-08T01:59:59;16.90;77.50
17452;DHT22;8843;48.838;9.324;2023-08-08T02:02:26;16.90;77.60
17452;DHT22;8843;48.838;9.324;2023-08-08T02:04:53;16.90;77.50
17452;DHT22;8843;48.838;9.324;2023-08-08T02:07:20;16.90;77.60
17452;DHT22;8843;48.838;9.324;2023-08-08T02:09:47;16.90;77.60
17452;DHT22;8843;48.838;9.324;2023-08-08T02:12:16;16.90;77.60
17452;DHT22;8843;48.838;9.324;2023-08-08T02:14:43;16.90;77.60
17452;DHT22;8843;48.838;9.324;2023-08-08T02:17:11;16.90;77.60
17452;DHT22;8843;48.838;9.324;2023-08-08T02:19:38;16.90;77.70
17452;DHT22;8843;48.838;9.324;2023-08-08T02:22:08;16.90;77.60
17452;DHT22;8843;48.838;9.324;2023-08-08T02:24:35;16.90;77.60
17452;DHT22;8843;48.838;9.324;2023-08-08T02:27:03;16.90;77.70
17452;DHT22;8843;48.838;9.324;2023-08-08T02:29:29;16.90;77.70
17452;DHT22;8843;48.838;9.324;2023-08-08T02:31:56;16.90;77.70
17452;DHT22;8843;48.838;9.324;2023-08-08T02:34:25;16.90;77.70
17452;DHT22;8843;48.838;9.324;2023-08-08T02:36:51;16.90;77.70
17452;DHT22;8843;48.838;9.324;2023-08-08T02:39:18;16.90;77.70
17452;DHT22;8843;48.838;9.324;2023-08-08T02:41:45;16.90;78.40
17452;DHT22;8843;48.838;9.324;2023-08-08T02:44:12;16.90;77.70
17452;DHT22;8843;48.838;9.324;2023-08-08T02:46:39;16.90;77.70
17452;DHT22;8843;48.838;9.324;2023-08-08T02:49:06;16.90;77.70
17452;DHT22;8843;48.838;9.324;2023-08-08T02:51:34;16.90;77.70
17452;DHT22;8843;48.838;9.324;2023-08-08T02:54:01;16.90;77.70
17452;DHT22;8843;48.838;9.324;2023-08-08T02:56:28;16.90;77.90
17452;DHT22;8843;48.838;9.324;2023-08-08T02:58:55;16.90;78.60
17452;DHT22;8843;48.838;9.324;2023-08-08T03:01:21;16.90;77.80
17452;DHT22;8843;48.838;9.324;2023-08-08T03:03:48;16.90;77.90
17452;DHT22;8843;48.838;9.324;2023-08-08T03:06:15;16.90;77.80
17452;DHT22;8843;48.838;9.324;2023-08-08T03:08:44;16.80;77.80
17452;DHT22;8843;48.838;9.324;2023-08-08T03:11:10;16.90;77.90
17452;DHT22;8843;48.838;9.324;2023-08-08T03:13:37;16.90;77.80
17452;DHT22;8843;48.838;9.324;2023-08-08T03:16:04;16.90;77.90
17452;DHT22;8843;48.838;9.324;2023-08-08T03:18:31;16.80;77.80
17452;DHT22;8843;48.838;9.324;2023-08-08T03:20:58;16.80;78.60
17452;DHT22;8843;48.838;9.324;2023-08-08T03:23:25;16.90;78.00
17452;DHT22;8843;48.838;9.324;2023-08-08T03:25:53;16.90;77.90
17452;DHT22;8843;48.838;9.324;2023-08-08T03:28:20;16.90;77.90
17452;DHT22;8843;48.838;9.324;2023-08-08T03:30:47;16.90;77.90
17452;DHT22;8843;48.838;9.324;2023-08-08T03:33:13;16.90;78.00
17452;DHT22;8843;48.838;9.324;2023-08-08T03:35:40;16.90;78.70
17452;DHT22;8843;48.838;9.324;2023-08-08T03:38:09;16.90;77.90
17452;DHT22;8843;48.838;9.324;2023-08-08T03:40:35;16.80;77.90
17452;DHT22;8843;48.838;9.324;2023-08-08T03:43:04;16.80;77.90
17452;DHT22;8843;48.838;9.324;2023-08-08T03:45:31;16.80;77.80
17452;DHT22;8843;48.838;9.324;2023-08-08T03:47:58;16.80;77.90
17452;DHT22;8843;48.838;9.324;2023-08-08T03:50:25;16.80;77.90
17452;DHT22;8843;48.838;9.324;2023-08-08T03:52:52;16.80;78.70
17452;DHT22;8843;48.838;9.324;2023-08-08T03:55:19;16.80;78.00
17452;DHT22;8843;48.838;9.324;2023-08-08T03:57:46;16.80;78.00
17452;DHT22;8843;48.838;9.324;2023-08-08T04:00:15;16.80;78.00
17452;DHT22;8843;48.838;9.324;2023-08-08T04:02:42;16.80;78.00
17452;DHT22;8843;48.838;9.324;2023-08-08T04:05:09;16.80;78.00
17452;DHT22;8843;48.838;9.324;2023-08-08T04:07:38;16.80;78.00
17452;DHT22;8843;48.838;9.324;2023-08-08T04:10:05;16.80;77.60
17452;DHT22;8843;48.838;9.324;2023-08-08T04:12:32;16.80;78.00
17452;DHT22;8843;48.838;9.324;2023-08-08T04:14:59;16.80;78.00
17452;DHT22;8843;48.838;9.324;2023-08-08T04:17:28;16.80;78.00
17452;DHT22;8843;48.838;9.324;2023-08-08T04:19:54;16.80;78.10
17452;DHT22;8843;48.838;9.324;2023-08-08T04:22:21;16.80;78.10
17452;DHT22;8843;48.838;9.324;2023-08-08T04:24:48;16.80;78.10
17452;DHT22;8843;48.838;9.324;2023-08-08T04:27:15;16.80;78.00
17452;DHT22;8843;48.838;9.324;2023-08-08T04:29:42;16.80;78.10
17452;DHT22;8843;48.838;9.324;2023-08-08T04:32:09;16.80;78.10
17452;DHT22;8843;48.838;9.324;2023-08-08T04:34:37;16.80;78.10
17452;DHT22;8843;48.838;9.324;2023-08-08T04:37:04;16.80;78.10
17452;DHT22;8843;48.838;9.324;2023-08-08T04:39:31;16.80;78.90
17452;DHT22;8843;48.838;9.324;2023-08-08T04:41:58;16.80;78.20
17452;DHT22;8843;48.838;9.324;2023-08-08T04:44:25;16.80;78.20
17452;DHT22;8843;48.838;9.324;2023-08-08T04:46:52;16.80;78.00
17452;DHT22;8843;48.838;9.324;2023-08-08T04:49:18;16.80;78.20
17452;DHT22;8843;48.838;9.324;2023-08-08T04:51:47;16.80;78.30
17452;DHT22;8843;48.838;9.324;2023-08-08T04:54:13;16.80;78.20
17452;DHT22;8843;48.838;9.324;2023-08-08T04:56:40;16.80;78.20
17452;DHT22;8843;48.838;9.324;2023-08-08T04:59:07;16.80;79.00
17452;DHT22;8843;48.838;9.324;2023-08-08T05:01:34;16.30;77.40
17452;DHT22;8843;48.838;9.324;2023-08-08T05:04:01;15.80;78.10
17452;DHT22;8843;48.838;9.324;2023-08-08T05:06:28;15.70;79.50
17452;DHT22;8843;48.838;9.324;2023-08-08T05:08:56;15.60;79.40
17452;DHT22;8843;48.838;9.324;2023-08-08T05:11:32;15.70;82.90
17452;DHT22;8843;48.838;9.324;2023-08-08T05:14:10;15.90;78.50
17452;DHT22;8843;48.838;9.324;2023-08-08T05:16:37;15.60;79.40
17452;DHT22;8843;48.838;9.324;2023-08-08T05:19:04;15.70;78.70
17452;DHT22;8843;48.838;9.324;2023-08-08T05:21:31;15.60;79.60
17452;DHT22;8843;48.838;9.324;2023-08-08T05:24:00;15.50;78.90
17452;DHT22;8843;48.838;9.324;2023-08-08T05:26:26;15.50;78.90
17452;DHT22;8843;48.838;9.324;2023-08-08T05:28:53;15.50;78.90
17452;DHT22;8843;48.838;9.324;2023-08-08T05:31:20;15.50;79.10
17452;DHT22;8843;48.838;9.324;2023-08-08T05:33:48;15.60;79.20
17452;DHT22;8843;48.838;9.324;2023-08-08T05:36:15;15.60;78.80
17452;DHT22;8843;48.838;9.324;2023-08-08T05:38:42;15.50;79.10
17452;DHT22;8843;48.838;9.324;2023-08-08T05:41:10;15.60;78.90
17452;DHT22;8843;48.838;9.324;2023-08-08T05:43:37;15.60;78.80
17452;DHT22;8843;48.838;9.324;2023-08-08T05:46:04;15.60;81.00
17452;DHT22;8843;48.838;9.324;2023-08-08T05:48:31;15.60;78.80
17452;DHT22;8843;48.838;9.324;2023-08-08T05:50:58;15.60;78.90
17452;DHT22;8843;48.838;9.324;2023-08-08T05:53:25;15.70;82.00
17452;DHT22;8843;48.838;9.324;2023-08-08T05:55:52;16.20;80.30
17452;DHT22;8843;48.838;9.324;2023-08-08T05:58:20;15.90;78.10
17452;DHT22;8843;48.838;9.324;2023-08-08T06:00:47;15.90;78.10
17452;DHT22;8843;48.838;9.324;2023-08-08T06:03:14;16.20;80.10
17452;DHT22;8843;48.838;9.324;2023-08-08T06:05:41;16.00;77.60
17452;DHT22;8843;48.838;9.324;2023-08-08T06:08:08;15.90;80.60
17452;DHT22;8843;48.838;9.324;2023-08-08T06:10:37;16.00;79.20
17452;DHT22;8843;48.838;9.324;2023-08-08T06:13:04;15.90;80.00
17452;DHT22;8843;48.838;9.324;2023-08-08T06:15:32;15.90;78.70
17452;DHT22;8843;48.838;9.324;2023-08-08T06:17:59;15.80;78.70
17452;DHT22;8843;48.838;9.324;2023-08-08T06:20:26;15.80;79.00
17452;DHT22;8843;48.838;9.324;2023-08-08T06:22:54;16.00;80.00
17452;DHT22;8843;48.838;9.324;2023-08-08T06:25:21;15.90;79.40
17452;DHT22;8843;48.838;9.324;2023-08-08T06:27:47;16.00;79.00
17452;DHT22;8843;48.838;9.324;2023-08-08T06:30:15;16.00;78.80
17452;DHT22;8843;48.838;9.324;2023-08-08T06:32:43;16.10;79.90
17452;DHT22;8843;48.838;9.324;2023-08-08T06:35:10;16.30;81.30
17452;DHT22;8843;48.838;9.324;2023-08-08T06:37:37;16.60;79.70
17452;DHT22;8843;48.838;9.324;2023-08-08T06:40:06;16.60;78.30
17452;DHT22;8843;48.838;9.324;2023-08-08T06:42:34;16.60;79.00
17452;DHT22;8843;48.838;9.324;2023-08-08T06:45:01;16.60;78.60
17452;DHT22;8843;48.838;9.324;2023-08-08T06:47:28;16.60;79.30
17452;DHT22;8843;48.838;9.324;2023-08-08T06:49:56;16.70;79.10
17452;DHT22;8843;48.838;9.324;2023-08-08T06:52:23;16.70;79.20
17452;DHT22;8843;48.838;9.324;2023-08-08T06:54:50;16.70;78.80
17452;DHT22;8843;48.838;9.324;2023-08-08T06:57:16;16.70;79.30
17452;DHT22;8843;48.838;9.324;2023-08-08T06:59:43;16.70;79.10
17452;DHT22;8843;48.838;9.324;2023-08-08T07:02:10;16.70;79.80
17452;DHT22;8843;48.838;9.324;2023-08-08T07:04:37;16.60;79.20
17452;DHT22;8843;48.838;9.324;2023-08-08T07:07:05;16.60;78.90
17452;DHT22;8843;48.838;9.324;2023-08-08T07:09:32;16.60;78.90
17452;DHT22;8843;48.838;9.324;2023-08-08T07:12:00;16.60;78.60
17452;DHT22;8843;48.838;9.324;2023-08-08T07:14:27;16.60;78.90
17452;DHT22;8843;48.838;9.324;2023-08-08T07:16:54;16.60;78.80
17452;DHT22;8843;48.838;9.324;2023-08-08T07:19:21;16.60;79.10
17452;DHT22;8843;48.838;9.324;2023-08-08T07:21:48;16.60;79.10
17452;DHT22;8843;48.838;9.324;2023-08-08T07:24:17;16.60;79.20
17452;DHT22;8843;48.838;9.324;2023-08-08T07:26:43;16.60;79.10
17452;DHT22;8843;48.838;9.324;2023-08-08T07:29:10;16.60;79.30
17452;DHT22;8843;48.838;9.324;2023-08-08T07:31:37;16.70;79.40
17452;DHT22;8843;48.838;9.324;2023-08-08T07:34:04;16.70;79.20
17452;DHT22;8843;48.838;9.324;2023-08-08T07:36:31;16.90;78.50
17452;DHT22;8843;48.838;9.324;2023-08-08T07:38:58;16.90;78.20
17452;DHT22;8843;48.838;9.324;2023-08-08T07:41:26;16.80;78.50
17452;DHT22;8843;48.838;9.324;2023-08-08T07:43:53;16.80;79.80
17452;DHT22;8843;48.838;9.324;2023-08-08T07:46:20;16.80;79.40
17452;DHT22;8843;48.838;9.324;2023-08-08T07:48:47;16.80;79.90
17452;DHT22;8843;48.838;9.324;2023-08-08T07:51:14;16.80;80.30
17452;DHT22;8843;48.838;9.324;2023-08-08T07:53:41;16.90;79.20
17452;DHT22;8843;48.838;9.324;2023-08-08T07:56:08;16.90;79.90
17452;DHT22;8843;48.838;9.324;2023-08-08T07:58:36;17.00;80.30
17452;DHT22;8843;48.838;9.324;2023-08-08T08:01:03;17.00;78.90
17452;DHT22;8843;48.838;9.324;2023-08-08T08:03:31;17.10;79.20
17452;DHT22;8843;48.838;9.324;2023-08-08T08:05:58;17.20;80.90
17452;DHT22;8843;48.838;9.324;2023-08-08T08:08:25;17.30;80.50
17452;DHT22;8843;48.838;9.324;2023-08-08T08:10:52;17.20;79.80
17452;DHT22;8843;48.838;9.324;2023-08-08T08:13:19;17.30;79.90
17452;DHT22;8843;48.838;9.324;2023-08-08T08:15:47;17.30;80.60
17452;DHT22;8843;48.838;9.324;2023-08-08T08:18:14;17.30;79.10
17452;DHT22;8843;48.838;9.324;2023-08-08T08:20:43;17.30;79.60
17452;DHT22;8843;48.838;9.324;2023-08-08T08:23:10;17.30;78.10
17452;DHT22;8843;48.838;9.324;2023-08-08T08:25:37;17.40;77.10
17452;DHT22;8843;48.838;9.324;2023-08-08T08:28:04;17.40;76.90
17452;DHT22;8843;48.838;9.324;2023-08-08T08:30:31;17.40;76.60
17452;DHT22;8843;48.838;9.324;2023-08-08T08:32:59;17.40;77.00
17452;DHT22;8843;48.838;9.324;2023-08-08T08:35:26;17.40;76.40
17452;DHT22;8843;48.838;9.324;2023-08-08T08:37:54;17.50;77.80
17452;DHT22;8843;48.838;9.324;2023-08-08T08:40:21;17.50;76.90
17452;DHT22;8843;48.838;9.324;2023-08-08T08:42:48;17.40;76.90
17452;DHT22;8843;48.838;9.324;2023-08-08T08:45:19;17.50;75.10
17452;DHT22;8843;48.838;9.324;2023-08-08T08:47:46;17.80;76.50
17452;DHT22;8843;48.838;9.324;2023-08-08T08:50:15;17.80;76.70
17452;DHT22;8843;48.838;9.324;2023-08-08T08:52:43;18.10;73.80
17452;DHT22;8843;48.838;9.324;2023-08-08T08:55:10;18.00;75.20
17452;DHT22;8843;48.838;9.324;2023-08-08T08:57:37;18.00;75.30
17452;DHT22;8843;48.838;9.324;2023-08-08T09:00:06;18.10;75.30
17452;DHT22;8843;48.838;9.324;2023-08-08T09:02:33;18.10;74.80
17452;DHT22;8843;48.838;9.324;2023-08-08T09:05:00;18.20;76.00
17452;DHT22;8843;48.838;9.324;2023-08-08T09:07:32;18.30;75.40
17452;DHT22;8843;48.838;9.324;2023-08-08T09:09:59;18.30;75.80
17452;DHT22;8843;48.838;9.324;2023-08-08T09:12:26;18.40;75.50
17452;DHT22;8843;48.838;9.324;2023-08-08T09:14:55;18.40;75.10
17452;DHT22;8843;48.838;9.324;2023-08-08T09:17:24;18.50;74.70
17452;DHT22;8843;48.838;9.324;2023-08-08T09:19:53;18.50;75.10
17452;DHT22;8843;48.838;9.324;2023-08-08T09:22:20;18.40;73.30
17452;DHT22;8843;48.838;9.324;2023-08-08T09:24:48;18.50;76.50
17452;DHT22;8843;48.838;9.324;2023-08-08T09:27:15;18.50;74.50
17452;DHT22;8843;48.838;9.324;2023-08-08T09:29:42;18.70;76.70
17452;DHT22;8843;48.838;9.324;2023-08-08T09:32:09;18.70;75.90
17452;DHT22;8843;48.838;9.324;2023-08-08T09:34:41;18.80;73.40
17452;DHT22;8843;48.838;9.324;2023-08-08T09:37:07;18.80;75.40
17452;DHT22;8843;48.838;9.324;2023-08-08T09:39:36;18.70;75.80
17452;DHT22;8843;48.838;9.324;2023-08-08T09:42:05;18.80;73.90
17452;DHT22;8843;48.838;9.324;2023-08-08T09:44:32;18.90;72.70
17452;DHT22;8843;48.838;9.324;2023-08-08T09:47:01;18.80;73.30
17452;DHT22;8843;48.838;9.324;2023-08-08T09:49:28;18.70;74.60
17452;DHT22;8843;48.838;9.324;2023-08-08T09:51:58;18.60;74.30
17452;DHT22;8843;48.838;9.324;2023-08-08T09:54:25;18.50;74.20
17452;DHT22;8843;48.838;9.324;2023-08-08T09:56:53;18.50;74.00
17452;DHT22;8843;48.838;9.324;2023-08-08T09:59:22;18.50;74.50
17452;DHT22;8843;48.838;9.324;2023-08-08T10:01:51;18.60;72.10
17452;DHT22;8843;48.838;9.324;2023-08-08T10:04:19;18.50;73.50
17452;DHT22;8843;48.838;9.324;2023-08-08T10:06:46;18.60;74.50
17452;DHT22;8843;48.838;9.324;2023-08-08T10:09:12;18.70;73.70
17452;DHT22;8843;48.838;9.324;2023-08-08T10:11:40;18.70;74.20
17452;DHT22;8843;48.838;9.324;2023-08-08T10:14:09;18.70;73.00
17452;DHT22;8843;48.838;9.324;2023-08-08T10:16:38;18.90;73.10
17452;DHT22;8843;48.838;9.324;2023-08-08T10:19:05;19.00;73.90
17452;DHT22;8843;48.838;9.324;2023-08-08T10:21:34;19.00;70.60
17452;DHT22;8843;48.838;9.324;2023-08-08T10:24:06;19.10;70.90
17452;DHT22;8843;48.838;9.324;2023-08-08T10:26:33;19.10;71.40
17452;DHT22;8843;48.838;9.324;2023-08-08T10:29:01;19.10;71.40
17452;DHT22;8843;48.838;9.324;2023-08-08T10:31:33;19.10;70.90
17452;DHT22;8843;48.838;9.324;2023-08-08T10:34:06;19.00;71.20
17452;DHT22;8843;48.838;9.324;2023-08-08T10:36:50;19.10;69.90
17452;DHT22;8843;48.838;9.324;2023-08-08T10:39:19;19.20;70.20
17452;DHT22;8843;48.838;9.324;2023-08-08T10:41:47;19.20;70.40
17452;DHT22;8843;48.838;9.324;2023-08-08T10:44:21;19.20;69.40
17452;DHT22;8843;48.838;9.324;2023-08-08T10:46:51;19.40;67.40
17452;DHT22;8843;48.838;9.324;2023-08-08T10:49:20;19.40;68.00
17452;DHT22;8843;48.838;9.324;2023-08-08T10:51:48;19.30;69.30
17452;DHT22;8843;48.838;9.324;2023-08-08T10:54:17;19.50;68.90
17452;DHT22;8843;48.838;9.324;2023-08-08T10:56:49;19.50;65.20
17452;DHT22;8843;48.838;9.324;2023-08-08T10:59:17;19.80;65.60
17452;DHT22;8843;48.838;9.324;2023-08-08T11:01:49;19.80;68.70
17452;DHT22;8843;48.838;9.324;2023-08-08T11:04:20;19.60;69.30
17452;DHT22;8843;48.838;9.324;2023-08-08T11:06:47;20.00;67.80
17452;DHT22;8843;48.838;9.324;2023-08-08T11:09:16;20.90;60.50
17452;DHT22;8843;48.838;9.324;2023-08-08T11:11:44;21.10;61.60
17452;DHT22;8843;48.838;9.324;2023-08-08T11:14:12;20.60;63.30
17452;DHT22;8843;48.838;9.324;2023-08-08T11:16:39;20.70;62.30
17452;DHT22;8843;48.838;9.324;2023-08-08T11:19:07;20.60;63.10
17452;DHT22;8843;48.838;9.324;2023-08-08T11:21:36;20.50;64.00
17452;DHT22;8843;48.838;9.324;2023-08-08T11:24:05;20.40;65.40
17452;DHT22;8843;48.838;9.324;2023-08-08T11:26:32;20.70;63.00
17452;DHT22;8843;48.838;9.324;2023-08-08T11:29:00;20.90;63.00
17452;DHT22;8843;48.838;9.324;2023-08-08T11:31:27;21.00;62.10
17452;DHT22;8843;48.838;9.324;2023-08-08T11:33:55;20.90;62.80
17452;DHT22;8843;48.838;9.324;2023-08-08T11:36:23;20.70;63.70
17452;DHT22;8843;48.838;9.324;2023-08-08T11:38:51;20.80;62.20
17452;DHT22;8843;48.838;9.324;2023-08-08T11:41:21;20.80;63.40
17452;DHT22;8843;48.838;9.324;2023-08-08T11:43:49;21.00;62.30
17452;DHT22;8843;48.838;9.324;2023-08-08T11:46:17;20.70;66.30
17452;DHT22;8843;48.838;9.324;2023-08-08T11:48:46;20.70;59.90
17452;DHT22;8843;48.838;9.324;2023-08-08T11:51:15;21.20;62.80
17452;DHT22;8843;48.838;9.324;2023-08-08T11:53:49;21.50;62.50
17452;DHT22;8843;48.838;9.324;2023-08-08T11:56:19;21.90;59.00
17452;DHT22;8843;48.838;9.324;2023-08-08T11:58:47;21.90;59.70
17452;DHT22;8843;48.838;9.324;2023-08-08T12:01:15;22.10;59.80
17452;DHT22;8843;48.838;9.324;2023-08-08T12:03:42;21.70;61.90
17452;DHT22;8843;48.838;9.324;2023-08-08T12:06:12;22.10;59.50
17452;DHT22;8843;48.838;9.324;2023-08-08T12:08:41;21.90;60.20
17452;DHT22;8843;48.838;9.324;2023-08-08T12:11:09;22.00;61.40
17452;DHT22;8843;48.838;9.324;2023-08-08T12:13:38;21.80;60.30
17452;DHT22;8843;48.838;9.324;2023-08-08T12:16:06;21.70;59.90
17452;DHT22;8843;48.838;9.324;2023-08-08T12:18:35;21.60;59.00
17452;DHT22;8843;48.838;9.324;2023-08-08T12:21:03;21.20;62.80
17452;DHT22;8843;48.838;9.324;2023-08-08T12:23:30;20.90;63.40
17452;DHT22;8843;48.838;9.324;2023-08-08T12:25:58;21.00;63.30
17452;DHT22;8843;48.838;9.324;2023-08-08T12:28:24;21.30;62.20
17452;DHT22;8843;48.838;9.324;2023-08-08T12:30:53;21.20;62.80
17452;DHT22;8843;48.838;9.324;2023-08-08T12:33:20;21.10;62.10
17452;DHT22;8843;48.838;9.324;2023-08-08T12:35:47;21.10;62.40
17452;DHT22;8843;48.838;9.324;2023-08-08T12:38:14;21.30;61.60
17452;DHT22;8843;48.838;9.324;2023-08-08T12:40:41;21.50;60.60
17452;DHT22;8843;48.838;9.324;2023-08-08T12:43:09;21.60;61.10
17452;DHT22;8843;48.838;9.324;2023-08-08T12:45:36;21.80;59.90
17452;DHT22;8843;48.838;9.324;2023-08-08T12:48:05;21.90;57.70
17452;DHT22;8843;48.838;9.324;2023-08-08T12:50:32;21.70;59.10
17452;DHT22;8843;48.838;9.324;2023-08-08T12:52:58;21.60;59.50
17452;DHT22;8843;48.838;9.324;2023-08-08T12:55:25;21.60;59.00
17452;DHT22;8843;48.838;9.324;2023-08-08T12:57:52;21.30;61.30
17452;DHT22;8843;48.838;9.324;2023-08-08T13:00:19;21.50;60.30
17452;DHT22;8843;48.838;9.324;2023-08-08T13:02:46;21.30;61.60
17452;DHT22;8843;48.838;9.324;2023-08-08T13:05:14;21.60;60.10
17452;DHT22;8843;48.838;9.324;2023-08-08T13:07:41;21.70;60.90
17452;DHT22;8843;48.838;9.324;2023-08-08T13:10:08;21.70;59.90
17452;DHT22;8843;48.838;9.324;2023-08-08T13:12:35;21.70;60.10
17452;DHT22;8843;48.838;9.324;2023-08-08T13:15:03;21.70;59.50
17452;DHT22;8843;48.838;9.324;2023-08-08T13:17:30;21.60;60.30
17452;DHT22;8843;48.838;9.324;2023-08-08T13:19:57;21.80;59.40
17452;DHT22;8843;48.838;9.324;2023-08-08T13:22:25;21.90;59.40
17452;DHT22;8843;48.838;9.324;2023-08-08T13:24:52;21.80;59.90
17452;DHT22;8843;48.838;9.324;2023-08-08T13:27:19;21.70;59.50
17452;DHT22;8843;48.838;9.324;2023-08-08T13:29:46;21.60;58.80
17452;DHT22;8843;48.838;9.324;2023-08-08T13:32:14;21.60;59.80
17452;DHT22;8843;48.838;9.324;2023-08-08T13:34:40;21.40;60.40
17452;DHT22;8843;48.838;9.324;2023-08-08T13:37:07;21.10;62.80
17452;DHT22;8843;48.838;9.324;2023-08-08T13:39:36;21.30;61.70
17452;DHT22;8843;48.838;9.324;2023-08-08T13:42:03;21.10;61.10
17452;DHT22;8843;48.838;9.324;2023-08-08T13:44:30;21.10;61.70
17452;DHT22;8843;48.838;9.324;2023-08-08T13:46:57;21.10;62.30
17452;DHT22;8843;48.838;9.324;2023-08-08T13:49:24;21.10;62.70
17452;DHT22;8843;48.838;9.324;2023-08-08T13:51:52;21.20;62.60
17452;DHT22;8843;48.838;9.324;2023-08-08T13:54:20;21.00;63.00
17452;DHT22;8843;48.838;9.324;2023-08-08T13:56:48;21.50;63.00
17452;DHT22;8843;48.838;9.324;2023-08-08T13:59:15;21.40;62.50
17452;DHT22;8843;48.838;9.324;2023-08-08T14:01:42;21.10;64.20
17452;DHT22;8843;48.838;9.324;2023-08-08T14:04:09;21.00;64.40
17452;DHT22;8843;48.838;9.324;2023-08-08T14:06:35;21.40;63.00
17452;DHT22;8843;48.838;9.324;2023-08-08T14:09:03;21.40;61.70
17452;DHT22;8843;48.838;9.324;2023-08-08T14:11:30;21.60;61.40
17452;DHT22;8843;48.838;9.324;2023-08-08T14:13:59;21.60;61.90
17452;DHT22;8843;48.838;9.324;2023-08-08T14:16:25;21.80;60.30
17452;DHT22;8843;48.838;9.324;2023-08-08T14:18:52;21.90;59.70
17452;DHT22;8843;48.838;9.324;2023-08-08T14:21:19;22.10;59.40
17452;DHT22;8843;48.838;9.324;2023-08-08T14:23:46;22.10;58.60
17452;DHT22;8843;48.838;9.324;2023-08-08T14:26:13;21.90;59.80
17452;DHT22;8843;48.838;9.324;2023-08-08T14:28:40;21.70;60.60
17452;DHT22;8843;48.838;9.324;2023-08-08T14:31:08;21.60;59.40
17452;DHT22;8843;48.838;9.324;2023-08-08T14:33:35;21.70;58.80
17452;DHT22;8843;48.838;9.324;2023-08-08T14:36:03;21.60;59.30
17452;DHT22;8843;48.838;9.324;2023-08-08T14:38:35;21.40;60.00
17452;DHT22;8843;48.838;9.324;2023-08-08T14:41:03;21.50;59.00
17452;DHT22;8843;48.838;9.324;2023-08-08T14:43:30;21.60;58.00
17452;DHT22;8843;48.838;9.324;2023-08-08T14:45:57;21.60;58.70
17452;DHT22;8843;48.838;9.324;2023-08-08T14:48:25;21.50;58.00
17452;DHT22;8843;48.838;9.324;2023-08-08T14:50:52;21.30;59.80
17452;DHT22;8843;48.838;9.324;2023-08-08T14:53:19;21.20;60.40
17452;DHT22;8843;48.838;9.324;2023-08-08T14:55:46;21.00;62.10
17452;DHT22;8843;48.838;9.324;2023-08-08T14:58:14;20.80;62.40
17452;DHT22;8843;48.838;9.324;2023-08-08T15:00:41;20.90;60.30
17452;DHT22;8843;48.838;9.324;2023-08-08T15:03:08;21.00;61.40
17452;DHT22;8843;48.838;9.324;2023-08-08T15:05:37;21.00;58.70
17452;DHT22;8843;48.838;9.324;2023-08-08T15:08:04;20.90;58.00
17452;DHT22;8843;48.838;9.324;2023-08-08T15:10:30;20.80;59.10
17452;DHT22;8843;48.838;9.324;2023-08-08T15:12:57;20.90;60.40
17452;DHT22;8843;48.838;9.324;2023-08-08T15:15:24;20.80;59.80
17452;DHT22;8843;48.838;9.324;2023-08-08T15:17:54;20.70;60.20
17452;DHT22;8843;48.838;9.324;2023-08-08T15:20:21;20.90;60.30
17452;DHT22;8843;48.838;9.324;2023-08-08T15:22:49;20.90;61.10
17452;DHT22;8843;48.838;9.324;2023-08-08T15:25:16;21.00;60.50
17452;DHT22;8843;48.838;9.324;2023-08-08T15:27:43;20.90;60.60
17452;DHT22;8843;48.838;9.324;2023-08-08T15:30:11;20.80;61.20
17452;DHT22;8843;48.838;9.324;2023-08-08T15:32:38;20.80;61.80
17452;DHT22;8843;48.838;9.324;2023-08-08T15:35:05;20.80;60.90
17452;DHT22;8843;48.838;9.324;2023-08-08T15:37:32;20.60;62.30
17452;DHT22;8843;48.838;9.324;2023-08-08T15:40:00;20.30;63.60
17452;DHT22;8843;48.838;9.324;2023-08-08T15:42:27;20.20;64.70
17452;DHT22;8843;48.838;9.324;2023-08-08T15:44:54;20.10;65.10
17452;DHT22;8843;48.838;9.324;2023-08-08T15:47:21;20.20;64.90